sensor_id;sensor_type;location;lat;lon;timestamp;P1;durP1;ratioP1;P2;durP2;ratioP2
61015;SDS011;46902;52.920;6.536;2024-03-17T00:01:36;7.10;;;1.92;;
61015;SDS011;46902;52.920;6.536;2024-03-17T00:04:02;6.30;;;1.48;;
61015;SDS011;46902;52.920;6.536;2024-03-17T00:06:28;7.95;;;1.60;;
61015;SDS011;46902;52.920;6.536;2024-03-17T00:08:55;6.68;;;1.50;;
61015;SDS011;46902;52.920;6.536;2024-03-17T00:11:22;5.22;;;1.60;;
61015;SDS011;46902;52.920;6.536;2024-03-17T00:13:47;7.25;;;1.48;;
61015;SDS011;46902;52.920;6.536;2024-03-17T00:16:13;6.97;;;1.77;;
61015;SDS011;46902;52.920;6.536;2024-03-17T00:18:39;7.05;;;1.35;;
61015;SDS011;46902;52.920;6.536;2024-03-17T00:21:06;7.97;;;1.80;;
61015;SDS011;46902;52.920;6.536;2024-03-17T00:23:31;8.05;;;1.63;;
61015;SDS011;46902;52.920;6.536;2024-03-17T00:25:57;7.35;;;1.83;;
61015;SDS011;46902;52.920;6.536;2024-03-17T00:28:23;7.35;;;1.58;;
61015;SDS011;46902;52.920;6.536;2024-03-17T00:30:50;9.85;;;2.25;;
61015;SDS011;46902;52.920;6.536;2024-03-17T00:33:15;11.68;;;2.70;;
61015;SDS011;46902;52.920;6.536;2024-03-17T00:35:41;10.77;;;2.25;;
61015;SDS011;46902;52.920;6.536;2024-03-17T00:38:07;7.82;;;2.17;;
61015;SDS011;46902;52.920;6.536;2024-03-17T00:40:38;13.52;;;2.17;;
61015;SDS011;46902;52.920;6.536;2024-03-17T00:43:07;7.68;;;2.25;;
61015;SDS011;46902;52.920;6.536;2024-03-17T00:45:33;6.97;;;2.65;;
61015;SDS011;46902;52.920;6.536;2024-03-17T00:47:58;17.33;;;4.40;;
61015;SDS011;46902;52.920;6.536;2024-03-17T00:50:24;10.40;;;5.00;;
61015;SDS011;46902;52.920;6.536;2024-03-17T00:52:50;12.35;;;5.45;;
61015;SDS011;46902;52.920;6.536;2024-03-17T00:55:15;10.52;;;4.97;;
61015;SDS011;46902;52.920;6.536;2024-03-17T00:57:41;10.90;;;4.05;;
61015;SDS011;46902;52.920;6.536;2024-03-17T01:00:07;10.43;;;4.78;;
61015;SDS011;46902;52.920;6.536;2024-03-17T01:02:36;15.35;;;5.22;;
61015;SDS011;46902;52.920;6.536;2024-03-17T01:05:03;13.63;;;5.15;;
61015;SDS011;46902;52.920;6.536;2024-03-17T01:07:33;12.23;;;4.72;;
61015;SDS011;46902;52.920;6.536;2024-03-17T01:09:59;12.65;;;3.78;;
61015;SDS011;46902;52.920;6.536;2024-03-17T01:12:25;9.82;;;3.78;;
61015;SDS011;46902;52.920;6.536;2024-03-17T01:14:51;10.75;;;3.42;;
61015;SDS011;46902;52.920;6.536;2024-03-17T01:17:17;12.50;;;3.08;;
61015;SDS011;46902;52.920;6.536;2024-03-17T01:19:44;8.65;;;2.80;;
61015;SDS011;46902;52.920;6.536;2024-03-17T01:22:10;7.03;;;1.92;;
61015;SDS011;46902;52.920;6.536;2024-03-17T01:24:35;11.32;;;2.75;;
61015;SDS011;46902;52.920;6.536;2024-03-17T01:27:02;9.05;;;2.05;;
61015;SDS011;46902;52.920;6.536;2024-03-17T01:29:28;9.07;;;2.60;;
61015;SDS011;46902;52.920;6.536;2024-03-17T01:31:53;7.05;;;2.08;;
61015;SDS011;46902;52.920;6.536;2024-03-17T01:34:20;6.82;;;2.05;;
61015;SDS011;46902;52.920;6.536;2024-03-17T01:36:46;9.32;;;2.20;;
61015;SDS011;46902;52.920;6.536;2024-03-17T01:39:12;9.93;;;2.45;;
61015;SDS011;46902;52.920;6.536;2024-03-17T01:41:38;4.45;;;2.10;;
61015;SDS011;46902;52.920;6.536;2024-03-17T01:44:04;7.28;;;2.45;;
61015;SDS011;46902;52.920;6.536;2024-03-17T01:46:30;7.22;;;2.20;;
61015;SDS011;46902;52.920;6.536;2024-03-17T01:48:56;9.13;;;2.80;;
61015;SDS011;46902;52.920;6.536;2024-03-17T01:51:22;9.52;;;2.88;;
61015;SDS011;46902;52.920;6.536;2024-03-17T01:53:49;7.68;;;2.53;;
61015;SDS011;46902;52.920;6.536;2024-03-17T01:56:16;4.95;;;2.28;;
61015;SDS011;46902;52.920;6.536;2024-03-17T01:58:45;5.32;;;2.10;;
61015;SDS011;46902;52.920;6.536;2024-03-17T02:01:11;13.55;;;2.45;;
61015;SDS011;46902;52.920;6.536;2024-03-17T02:03:41;7.18;;;2.65;;
61015;SDS011;46902;52.920;6.536;2024-03-17T02:06:07;10.00;;;2.65;;
61015;SDS011;46902;52.920;6.536;2024-03-17T02:08:46;9.50;;;2.65;;
61015;SDS011;46902;52.920;6.536;2024-03-17T02:11:24;8.50;;;2.53;;
61015;SDS011;46902;52.920;6.536;2024-03-17T02:13:50;7.30;;;2.50;;
61015;SDS011;46902;52.920;6.536;2024-03-17T02:16:17;9.75;;;3.33;;
61015;SDS011;46902;52.920;6.536;2024-03-17T02:18:44;9.52;;;2.40;;
61015;SDS011;46902;52.920;6.536;2024-03-17T02:21:09;8.50;;;2.20;;
61015;SDS011;46902;52.920;6.536;2024-03-17T02:23:35;6.78;;;2.75;;
61015;SDS011;46902;52.920;6.536;2024-03-17T02:26:01;10.65;;;2.42;;
61015;SDS011;46902;52.920;6.536;2024-03-17T02:28:26;10.45;;;3.58;;
61015;SDS011;46902;52.920;6.536;2024-03-17T02:30:52;9.88;;;2.63;;
61015;SDS011;46902;52.920;6.536;2024-03-17T02:33:18;12.57;;;3.03;;
61015;SDS011;46902;52.920;6.536;2024-03-17T02:35:44;11.07;;;2.83;;
61015;SDS011;46902;52.920;6.536;2024-03-17T02:38:10;12.80;;;3.47;;
61015;SDS011;46902;52.920;6.536;2024-03-17T02:41:01;8.85;;;2.75;;
61015;SDS011;46902;52.920;6.536;2024-03-17T02:43:26;6.45;;;2.20;;
61015;SDS011;46902;52.920;6.536;2024-03-17T02:45:52;7.25;;;2.67;;
61015;SDS011;46902;52.920;6.536;2024-03-17T02:48:17;9.20;;;2.60;;
61015;SDS011;46902;52.920;6.536;2024-03-17T02:50:43;8.80;;;2.72;;
61015;SDS011;46902;52.920;6.536;2024-03-17T02:53:09;9.63;;;3.03;;
61015;SDS011;46902;52.920;6.536;2024-03-17T02:55:34;10.48;;;3.10;;
61015;SDS011;46902;52.920;6.536;2024-03-17T02:58:00;9.25;;;3.00;;
61015;SDS011;46902;52.920;6.536;2024-03-17T03:00:26;7.70;;;3.05;;
61015;SDS011;46902;52.920;6.536;2024-03-17T03:02:51;11.07;;;2.97;;
61015;SDS011;46902;52.920;6.536;2024-03-17T03:05:17;12.88;;;3.45;;
61015;SDS011;46902;52.920;6.536;2024-03-17T03:07:42;9.85;;;3.20;;
61015;SDS011;46902;52.920;6.536;2024-03-17T03:10:08;9.73;;;3.53;;
61015;SDS011;46902;52.920;6.536;2024-03-17T03:12:35;10.55;;;3.63;;
61015;SDS011;46902;52.920;6.536;2024-03-17T03:15:01;9.10;;;3.75;;
61015;SDS011;46902;52.920;6.536;2024-03-17T03:17:28;11.25;;;3.50;;
61015;SDS011;46902;52.920;6.536;2024-03-17T03:19:53;8.30;;;3.53;;
61015;SDS011;46902;52.920;6.536;2024-03-17T03:22:20;11.52;;;3.88;;
61015;SDS011;46902;52.920;6.536;2024-03-17T03:24:46;12.45;;;4.03;;
61015;SDS011;46902;52.920;6.536;2024-03-17T03:27:12;8.65;;;4.05;;
61015;SDS011;46902;52.920;6.536;2024-03-17T03:29:38;8.02;;;3.65;;
61015;SDS011;46902;52.920;6.536;2024-03-17T03:32:04;13.38;;;3.70;;
61015;SDS011;46902;52.920;6.536;2024-03-17T03:34:30;12.07;;;4.18;;
61015;SDS011;46902;52.920;6.536;2024-03-17T03:36:55;13.13;;;4.18;;
61015;SDS011;46902;52.920;6.536;2024-03-17T03:39:21;11.15;;;4.15;;
61015;SDS011;46902;52.920;6.536;2024-03-17T03:41:49;16.58;;;4.30;;
61015;SDS011;46902;52.920;6.536;2024-03-17T03:44:15;9.98;;;3.70;;
61015;SDS011;46902;52.920;6.536;2024-03-17T03:46:40;11.65;;;4.20;;
61015;SDS011;46902;52.920;6.536;2024-03-17T03:49:06;9.43;;;3.75;;
61015;SDS011;46902;52.920;6.536;2024-03-17T03:51:33;11.77;;;3.78;;
61015;SDS011;46902;52.920;6.536;2024-03-17T03:53:58;11.52;;;4.10;;
61015;SDS011;46902;52.920;6.536;2024-03-17T03:56:24;8.48;;;4.10;;
61015;SDS011;46902;52.920;6.536;2024-03-17T03:58:50;8.50;;;4.05;;
61015;SDS011;46902;52.920;6.536;2024-03-17T04:01:16;9.85;;;4.38;;
61015;SDS011;46902;52.920;6.536;2024-03-17T04:03:46;13.88;;;4.55;;
61015;SDS011;46902;52.920;6.536;2024-03-17T04:06:13;11.00;;;4.20;;
61015;SDS011;46902;52.920;6.536;2024-03-17T04:08:40;8.27;;;4.07;;
61015;SDS011;46902;52.920;6.536;2024-03-17T04:11:06;11.15;;;4.00;;
61015;SDS011;46902;52.920;6.536;2024-03-17T04:13:32;11.43;;;4.60;;
61015;SDS011;46902;52.920;6.536;2024-03-17T04:15:59;9.73;;;4.43;;
61015;SDS011;46902;52.920;6.536;2024-03-17T04:18:26;13.38;;;4.30;;
61015;SDS011;46902;52.920;6.536;2024-03-17T04:20:55;12.15;;;3.88;;
61015;SDS011;46902;52.920;6.536;2024-03-17T04:23:22;13.85;;;4.10;;
61015;SDS011;46902;52.920;6.536;2024-03-17T04:25:48;11.25;;;3.70;;
61015;SDS011;46902;52.920;6.536;2024-03-17T04:28:17;14.20;;;4.45;;
61015;SDS011;46902;52.920;6.536;2024-03-17T04:30:43;10.85;;;3.90;;
61015;SDS011;46902;52.920;6.536;2024-03-17T04:33:10;14.02;;;3.72;;
61015;SDS011;46902;52.920;6.536;2024-03-17T04:35:36;17.05;;;4.40;;
61015;SDS011;46902;52.920;6.536;2024-03-17T04:38:02;7.97;;;3.78;;
61015;SDS011;46902;52.920;6.536;2024-03-17T04:40:28;11.80;;;3.80;;
61015;SDS011;46902;52.920;6.536;2024-03-17T04:42:54;11.95;;;3.45;;
61015;SDS011;46902;52.920;6.536;2024-03-17T04:45:20;8.38;;;3.63;;
61015;SDS011;46902;52.920;6.536;2024-03-17T04:47:45;12.27;;;3.67;;
61015;SDS011;46902;52.920;6.536;2024-03-17T04:50:12;10.43;;;4.03;;
61015;SDS011;46902;52.920;6.536;2024-03-17T04:52:38;8.13;;;3.95;;
61015;SDS011;46902;52.920;6.536;2024-03-17T04:55:04;8.27;;;3.75;;
61015;SDS011;46902;52.920;6.536;2024-03-17T04:57:29;10.80;;;4.43;;
61015;SDS011;46902;52.920;6.536;2024-03-17T04:59:55;9.38;;;4.25;;
61015;SDS011;46902;52.920;6.536;2024-03-17T05:02:21;15.68;;;3.90;;
61015;SDS011;46902;52.920;6.536;2024-03-17T05:04:48;12.07;;;3.78;;
61015;SDS011;46902;52.920;6.536;2024-03-17T05:07:14;8.32;;;3.47;;
61015;SDS011;46902;52.920;6.536;2024-03-17T05:09:39;9.48;;;3.63;;
61015;SDS011;46902;52.920;6.536;2024-03-17T05:12:05;10.38;;;3.78;;
61015;SDS011;46902;52.920;6.536;2024-03-17T05:14:32;10.73;;;3.60;;
61015;SDS011;46902;52.920;6.536;2024-03-17T05:16:57;10.18;;;3.55;;
61015;SDS011;46902;52.920;6.536;2024-03-17T05:19:23;9.20;;;3.28;;
61015;SDS011;46902;52.920;6.536;2024-03-17T05:21:49;11.02;;;3.78;;
61015;SDS011;46902;52.920;6.536;2024-03-17T05:24:14;8.48;;;3.72;;
61015;SDS011;46902;52.920;6.536;2024-03-17T05:26:40;11.50;;;3.63;;
61015;SDS011;46902;52.920;6.536;2024-03-17T05:29:10;8.32;;;3.38;;
61015;SDS011;46902;52.920;6.536;2024-03-17T05:31:36;11.50;;;3.70;;
61015;SDS011;46902;52.920;6.536;2024-03-17T05:34:04;11.55;;;3.53;;
61015;SDS011;46902;52.920;6.536;2024-03-17T05:36:33;11.18;;;3.67;;
61015;SDS011;46902;52.920;6.536;2024-03-17T05:38:59;11.35;;;3.88;;
61015;SDS011;46902;52.920;6.536;2024-03-17T05:41:25;9.88;;;3.65;;
61015;SDS011;46902;52.920;6.536;2024-03-17T05:43:51;12.18;;;3.95;;
61015;SDS011;46902;52.920;6.536;2024-03-17T05:46:16;11.82;;;4.28;;
61015;SDS011;46902;52.920;6.536;2024-03-17T05:48:42;11.48;;;3.63;;
61015;SDS011;46902;52.920;6.536;2024-03-17T05:51:09;8.75;;;3.88;;
61015;SDS011;46902;52.920;6.536;2024-03-17T05:53:36;9.23;;;4.20;;
61015;SDS011;46902;52.920;6.536;2024-03-17T05:56:05;13.10;;;4.40;;
61015;SDS011;46902;52.920;6.536;2024-03-17T05:58:32;10.52;;;4.13;;
61015;SDS011;46902;52.920;6.536;2024-03-17T06:01:01;10.75;;;4.03;;
61015;SDS011;46902;52.920;6.536;2024-03-17T06:03:27;11.80;;;4.00;;
61015;SDS011;46902;52.920;6.536;2024-03-17T06:05:53;9.52;;;3.70;;
61015;SDS011;46902;52.920;6.536;2024-03-17T06:08:19;9.45;;;3.33;;
61015;SDS011;46902;52.920;6.536;2024-03-17T06:10:45;12.20;;;3.30;;
61015;SDS011;46902;52.920;6.536;2024-03-17T06:13:14;13.73;;;4.10;;
61015;SDS011;46902;52.920;6.536;2024-03-17T06:15:42;11.50;;;3.45;;
61015;SDS011;46902;52.920;6.536;2024-03-17T06:18:13;11.85;;;3.20;;
61015;SDS011;46902;52.920;6.536;2024-03-17T06:20:42;9.10;;;3.60;;
61015;SDS011;46902;52.920;6.536;2024-03-17T06:23:08;8.57;;;3.22;;
61015;SDS011;46902;52.920;6.536;2024-03-17T06:25:43;12.40;;;3.25;;
61015;SDS011;46902;52.920;6.536;2024-03-17T06:28:10;11.02;;;3.50;;
61015;SDS011;46902;52.920;6.536;2024-03-17T06:30:45;11.48;;;3.67;;
61015;SDS011;46902;52.920;6.536;2024-03-17T06:33:19;7.95;;;2.85;;
61015;SDS011;46902;52.920;6.536;2024-03-17T06:35:46;10.25;;;2.88;;
61015;SDS011;46902;52.920;6.536;2024-03-17T06:38:12;11.80;;;2.85;;
61015;SDS011;46902;52.920;6.536;2024-03-17T06:40:40;11.55;;;3.72;;
61015;SDS011;46902;52.920;6.536;2024-03-17T06:43:06;10.98;;;2.80;;
61015;SDS011;46902;52.920;6.536;2024-03-17T06:45:32;11.15;;;3.08;;
61015;SDS011;46902;52.920;6.536;2024-03-17T06:47:58;8.93;;;2.42;;
61015;SDS011;46902;52.920;6.536;2024-03-17T06:50:23;12.38;;;3.03;;
61015;SDS011;46902;52.920;6.536;2024-03-17T06:52:49;9.10;;;2.45;;
61015;SDS011;46902;52.920;6.536;2024-03-17T06:55:17;8.80;;;2.53;;
61015;SDS011;46902;52.920;6.536;2024-03-17T06:57:43;17.35;;;2.92;;
61015;SDS011;46902;52.920;6.536;2024-03-17T07:00:09;8.57;;;2.33;;
61015;SDS011;46902;52.920;6.536;2024-03-17T07:02:42;10.88;;;3.35;;
61015;SDS011;46902;52.920;6.536;2024-03-17T07:05:13;8.95;;;2.83;;
61015;SDS011;46902;52.920;6.536;2024-03-17T07:07:42;9.40;;;2.67;;
61015;SDS011;46902;52.920;6.536;2024-03-17T07:10:08;8.30;;;2.38;;
61015;SDS011;46902;52.920;6.536;2024-03-17T07:12:36;10.85;;;2.90;;
61015;SDS011;46902;52.920;6.536;2024-03-17T07:15:02;11.80;;;3.20;;
61015;SDS011;46902;52.920;6.536;2024-03-17T07:17:28;17.30;;;3.40;;
61015;SDS011;46902;52.920;6.536;2024-03-17T07:19:54;11.85;;;4.38;;
61015;SDS011;46902;52.920;6.536;2024-03-17T07:22:20;11.20;;;5.57;;
61015;SDS011;46902;52.920;6.536;2024-03-17T07:24:47;10.65;;;4.32;;
61015;SDS011;46902;52.920;6.536;2024-03-17T07:27:15;11.32;;;3.50;;
61015;SDS011;46902;52.920;6.536;2024-03-17T07:29:40;10.55;;;3.30;;
61015;SDS011;46902;52.920;6.536;2024-03-17T07:32:06;11.35;;;2.55;;
61015;SDS011;46902;52.920;6.536;2024-03-17T07:34:32;11.18;;;2.60;;
61015;SDS011;46902;52.920;6.536;2024-03-17T07:36:58;8.30;;;2.97;;
61015;SDS011;46902;52.920;6.536;2024-03-17T07:39:31;11.45;;;3.03;;
61015;SDS011;46902;52.920;6.536;2024-03-17T07:41:58;10.00;;;2.70;;
61015;SDS011;46902;52.920;6.536;2024-03-17T07:44:24;9.13;;;2.65;;
61015;SDS011;46902;52.920;6.536;2024-03-17T07:46:54;12.85;;;3.40;;
61015;SDS011;46902;52.920;6.536;2024-03-17T07:49:20;12.20;;;2.60;;
61015;SDS011;46902;52.920;6.536;2024-03-17T07:51:46;12.25;;;3.13;;
61015;SDS011;46902;52.920;6.536;2024-03-17T07:54:12;9.07;;;2.97;;
61015;SDS011;46902;52.920;6.536;2024-03-17T07:56:38;14.13;;;3.30;;
61015;SDS011;46902;52.920;6.536;2024-03-17T07:59:04;12.60;;;3.00;;
61015;SDS011;46902;52.920;6.536;2024-03-17T08:01:37;11.20;;;2.90;;
61015;SDS011;46902;52.920;6.536;2024-03-17T08:04:02;11.45;;;3.40;;
61015;SDS011;46902;52.920;6.536;2024-03-17T08:06:28;10.55;;;3.30;;
61015;SDS011;46902;52.920;6.536;2024-03-17T08:08:54;9.70;;;3.65;;
61015;SDS011;46902;52.920;6.536;2024-03-17T08:11:20;10.00;;;3.70;;
61015;SDS011;46902;52.920;6.536;2024-03-17T08:13:46;10.88;;;3.92;;
61015;SDS011;46902;52.920;6.536;2024-03-17T08:16:11;10.82;;;3.40;;
61015;SDS011;46902;52.920;6.536;2024-03-17T08:18:39;11.48;;;4.28;;
61015;SDS011;46902;52.920;6.536;2024-03-17T08:21:05;16.77;;;3.78;;
61015;SDS011;46902;52.920;6.536;2024-03-17T08:23:31;10.52;;;4.10;;
61015;SDS011;46902;52.920;6.536;2024-03-17T08:25:59;9.55;;;3.70;;
61015;SDS011;46902;52.920;6.536;2024-03-17T08:28:26;8.27;;;3.38;;
61015;SDS011;46902;52.920;6.536;2024-03-17T08:30:56;13.80;;;4.63;;
61015;SDS011;46902;52.920;6.536;2024-03-17T08:33:24;9.52;;;4.00;;
61015;SDS011;46902;52.920;6.536;2024-03-17T08:38:23;11.23;;;4.70;;
61015;SDS011;46902;52.920;6.536;2024-03-17T08:40:52;10.82;;;4.93;;
61015;SDS011;46902;52.920;6.536;2024-03-17T08:43:19;11.10;;;4.50;;
61015;SDS011;46902;52.920;6.536;2024-03-17T08:45:59;14.65;;;4.45;;
61015;SDS011;46902;52.920;6.536;2024-03-17T08:48:36;17.67;;;5.43;;
61015;SDS011;46902;52.920;6.536;2024-03-17T08:51:03;14.25;;;4.55;;
61015;SDS011;46902;52.920;6.536;2024-03-17T08:53:30;13.15;;;4.43;;
61015;SDS011;46902;52.920;6.536;2024-03-17T08:55:56;12.23;;;4.75;;
61015;SDS011;46902;52.920;6.536;2024-03-17T08:58:23;10.23;;;5.10;;
61015;SDS011;46902;52.920;6.536;2024-03-17T09:00:49;10.55;;;4.65;;
61015;SDS011;46902;52.920;6.536;2024-03-17T09:03:16;12.20;;;5.32;;
61015;SDS011;46902;52.920;6.536;2024-03-17T09:05:43;14.75;;;6.03;;
61015;SDS011;46902;52.920;6.536;2024-03-17T09:08:15;9.38;;;5.43;;
61015;SDS011;46902;52.920;6.536;2024-03-17T09:10:47;12.45;;;6.30;;
61015;SDS011;46902;52.920;6.536;2024-03-17T09:13:14;15.63;;;5.70;;
61015;SDS011;46902;52.920;6.536;2024-03-17T09:15:49;12.68;;;6.15;;
61015;SDS011;46902;52.920;6.536;2024-03-17T09:18:25;14.65;;;6.82;;
61015;SDS011;46902;52.920;6.536;2024-03-17T09:23:24;14.43;;;6.90;;
61015;SDS011;46902;52.920;6.536;2024-03-17T09:28:30;14.70;;;7.45;;
61015;SDS011;46902;52.920;6.536;2024-03-17T09:30:56;13.82;;;6.72;;
61015;SDS011;46902;52.920;6.536;2024-03-17T09:33:23;11.52;;;7.00;;
61015;SDS011;46902;52.920;6.536;2024-03-17T09:35:57;12.20;;;7.40;;
61015;SDS011;46902;52.920;6.536;2024-03-17T09:38:26;12.68;;;6.63;;
61015;SDS011;46902;52.920;6.536;2024-03-17T09:40:55;14.40;;;6.88;;
61015;SDS011;46902;52.920;6.536;2024-03-17T09:43:27;11.95;;;6.97;;
61015;SDS011;46902;52.920;6.536;2024-03-17T09:46:03;16.15;;;7.65;;
61015;SDS011;46902;52.920;6.536;2024-03-17T09:48:30;11.07;;;6.60;;
61015;SDS011;46902;52.920;6.536;2024-03-17T09:51:00;14.23;;;6.30;;
61015;SDS011;46902;52.920;6.536;2024-03-17T09:53:27;12.60;;;6.43;;
61015;SDS011;46902;52.920;6.536;2024-03-17T09:56:01;15.73;;;7.18;;
61015;SDS011;46902;52.920;6.536;2024-03-17T09:58:41;9.70;;;6.38;;
61015;SDS011;46902;52.920;6.536;2024-03-17T10:01:07;10.95;;;6.82;;
61015;SDS011;46902;52.920;6.536;2024-03-17T10:03:40;11.80;;;6.43;;
61015;SDS011;46902;52.920;6.536;2024-03-17T10:06:16;11.10;;;6.30;;
61015;SDS011;46902;52.920;6.536;2024-03-17T10:08:48;10.73;;;5.78;;
61015;SDS011;46902;52.920;6.536;2024-03-17T10:11:16;10.85;;;6.10;;
61015;SDS011;46902;52.920;6.536;2024-03-17T10:13:43;10.73;;;5.45;;
61015;SDS011;46902;52.920;6.536;2024-03-17T10:16:20;12.75;;;5.97;;
61015;SDS011;46902;52.920;6.536;2024-03-17T10:18:48;12.02;;;6.20;;
61015;SDS011;46902;52.920;6.536;2024-03-17T10:21:25;13.02;;;5.93;;
61015;SDS011;46902;52.920;6.536;2024-03-17T10:26:54;12.73;;;6.22;;
61015;SDS011;46902;52.920;6.536;2024-03-17T10:32:32;8.77;;;5.47;;
61015;SDS011;46902;52.920;6.536;2024-03-17T10:34:41;11.60;;;6.15;;
61015;SDS011;46902;52.920;6.536;2024-03-17T10:39:51;10.95;;;6.40;;
61015;SDS011;46902;52.920;6.536;2024-03-17T10:42:22;12.60;;;6.10;;
61015;SDS011;46902;52.920;6.536;2024-03-17T10:44:53;9.07;;;5.78;;
61015;SDS011;46902;52.920;6.536;2024-03-17T10:47:27;14.18;;;6.25;;
61015;SDS011;46902;52.920;6.536;2024-03-17T10:49:54;13.32;;;6.55;;
61015;SDS011;46902;52.920;6.536;2024-03-17T10:52:21;11.15;;;6.22;;
61015;SDS011;46902;52.920;6.536;2024-03-17T10:54:51;10.57;;;6.57;;
61015;SDS011;46902;52.920;6.536;2024-03-17T10:57:23;10.73;;;6.28;;
61015;SDS011;46902;52.920;6.536;2024-03-17T11:00:08;11.23;;;6.10;;
61015;SDS011;46902;52.920;6.536;2024-03-17T11:02:35;8.15;;;6.05;;
61015;SDS011;46902;52.920;6.536;2024-03-17T11:05:05;8.68;;;5.93;;
61015;SDS011;46902;52.920;6.536;2024-03-17T11:07:43;10.75;;;6.43;;
61015;SDS011;46902;52.920;6.536;2024-03-17T11:10:14;14.98;;;7.03;;
61015;SDS011;46902;52.920;6.536;2024-03-17T11:12:55;10.35;;;7.18;;
61015;SDS011;46902;52.920;6.536;2024-03-17T11:17:55;10.75;;;7.15;;
61015;SDS011;46902;52.920;6.536;2024-03-17T11:23:40;11.25;;;7.10;;
61015;SDS011;46902;52.920;6.536;2024-03-17T11:26:07;12.93;;;7.35;;
61015;SDS011;46902;52.920;6.536;2024-03-17T11:37:01;11.02;;;6.55;;
61015;SDS011;46902;52.920;6.536;2024-03-17T11:42:23;9.50;;;6.70;;
61015;SDS011;46902;52.920;6.536;2024-03-17T11:44:56;9.27;;;6.43;;
61015;SDS011;46902;52.920;6.536;2024-03-17T11:47:23;11.52;;;6.40;;
61015;SDS011;46902;52.920;6.536;2024-03-17T11:49:58;10.80;;;6.50;;
61015;SDS011;46902;52.920;6.536;2024-03-17T11:52:27;12.10;;;6.90;;
61015;SDS011;46902;52.920;6.536;2024-03-17T11:54:52;8.00;;;6.45;;
61015;SDS011;46902;52.920;6.536;2024-03-17T11:57:26;13.50;;;6.85;;
61015;SDS011;46902;52.920;6.536;2024-03-17T11:59:52;8.38;;;7.07;;
61015;SDS011;46902;52.920;6.536;2024-03-17T12:02:26;7.88;;;5.82;;
61015;SDS011;46902;52.920;6.536;2024-03-17T12:04:57;9.90;;;6.47;;
61015;SDS011;46902;52.920;6.536;2024-03-17T12:07:23;9.65;;;6.43;;
61015;SDS011;46902;52.920;6.536;2024-03-17T12:09:52;12.07;;;6.95;;
61015;SDS011;46902;52.920;6.536;2024-03-17T12:14:44;8.10;;;6.18;;
61015;SDS011;46902;52.920;6.536;2024-03-17T12:17:11;9.70;;;6.32;;
61015;SDS011;46902;52.920;6.536;2024-03-17T12:19:43;11.48;;;6.05;;
61015;SDS011;46902;52.920;6.536;2024-03-17T12:22:12;8.90;;;6.32;;
61015;SDS011;46902;52.920;6.536;2024-03-17T12:24:46;9.60;;;6.32;;
61015;SDS011;46902;52.920;6.536;2024-03-17T12:27:16;8.25;;;6.03;;
61015;SDS011;46902;52.920;6.536;2024-03-17T12:29:50;9.20;;;5.90;;
61015;SDS011;46902;52.920;6.536;2024-03-17T12:32:18;9.18;;;6.18;;
61015;SDS011;46902;52.920;6.536;2024-03-17T12:34:51;9.38;;;5.80;;
61015;SDS011;46902;52.920;6.536;2024-03-17T12:37:26;7.93;;;5.10;;
61015;SDS011;46902;52.920;6.536;2024-03-17T12:40:01;8.07;;;5.25;;
61015;SDS011;46902;52.920;6.536;2024-03-17T12:42:28;5.88;;;5.25;;
61015;SDS011;46902;52.920;6.536;2024-03-17T12:44:56;7.97;;;5.20;;
61015;SDS011;46902;52.920;6.536;2024-03-17T12:47:23;8.30;;;4.93;;
61015;SDS011;46902;52.920;6.536;2024-03-17T12:49:51;9.40;;;5.50;;
61015;SDS011;46902;52.920;6.536;2024-03-17T12:52:22;7.70;;;6.18;;
61015;SDS011;46902;52.920;6.536;2024-03-17T12:57:46;8.65;;;6.03;;
61015;SDS011;46902;52.920;6.536;2024-03-17T13:00:32;7.88;;;5.47;;
61015;SDS011;46902;52.920;6.536;2024-03-17T13:02:59;7.53;;;5.22;;
61015;SDS011;46902;52.920;6.536;2024-03-17T13:05:26;7.43;;;5.40;;
61015;SDS011;46902;52.920;6.536;2024-03-17T13:07:52;8.93;;;5.55;;
61015;SDS011;46902;52.920;6.536;2024-03-17T13:10:21;7.22;;;5.47;;
61015;SDS011;46902;52.920;6.536;2024-03-17T13:12:48;8.77;;;6.15;;
61015;SDS011;46902;52.920;6.536;2024-03-17T13:15:22;8.20;;;5.68;;
61015;SDS011;46902;52.920;6.536;2024-03-17T13:17:48;9.05;;;5.82;;
61015;SDS011;46902;52.920;6.536;2024-03-17T13:20:14;8.98;;;5.50;;
61015;SDS011;46902;52.920;6.536;2024-03-17T13:22:41;7.03;;;5.82;;
61015;SDS011;46902;52.920;6.536;2024-03-17T13:25:17;8.20;;;6.00;;
61015;SDS011;46902;52.920;6.536;2024-03-17T13:27:46;10.52;;;6.70;;
61015;SDS011;46902;52.920;6.536;2024-03-17T13:30:13;6.88;;;5.60;;
61015;SDS011;46902;52.920;6.536;2024-03-17T13:32:43;9.38;;;6.10;;
61015;SDS011;46902;52.920;6.536;2024-03-17T13:35:17;9.05;;;6.32;;
61015;SDS011;46902;52.920;6.536;2024-03-17T13:37:47;9.82;;;6.38;;
61015;SDS011;46902;52.920;6.536;2024-03-17T13:40:14;9.63;;;6.35;;
61015;SDS011;46902;52.920;6.536;2024-03-17T13:42:45;7.85;;;5.70;;
61015;SDS011;46902;52.920;6.536;2024-03-17T13:45:12;9.27;;;6.15;;
61015;SDS011;46902;52.920;6.536;2024-03-17T13:47:38;8.80;;;6.22;;
61015;SDS011;46902;52.920;6.536;2024-03-17T13:50:05;7.63;;;5.90;;
61015;SDS011;46902;52.920;6.536;2024-03-17T13:52:36;9.55;;;5.82;;
61015;SDS011;46902;52.920;6.536;2024-03-17T13:55:03;9.35;;;6.53;;
61015;SDS011;46902;52.920;6.536;2024-03-17T13:57:31;8.73;;;5.88;;
61015;SDS011;46902;52.920;6.536;2024-03-17T13:59:58;7.80;;;5.88;;
61015;SDS011;46902;52.920;6.536;2024-03-17T14:02:23;10.10;;;6.03;;
61015;SDS011;46902;52.920;6.536;2024-03-17T14:04:49;8.70;;;6.03;;
61015;SDS011;46902;52.920;6.536;2024-03-17T14:07:15;10.70;;;6.35;;
61015;SDS011;46902;52.920;6.536;2024-03-17T14:09:41;9.02;;;6.20;;
61015;SDS011;46902;52.920;6.536;2024-03-17T14:12:09;7.85;;;6.03;;
61015;SDS011;46902;52.920;6.536;2024-03-17T14:14:35;8.23;;;6.10;;
61015;SDS011;46902;52.920;6.536;2024-03-17T14:17:00;8.63;;;6.00;;
61015;SDS011;46902;52.920;6.536;2024-03-17T14:19:26;8.82;;;6.53;;
61015;SDS011;46902;52.920;6.536;2024-03-17T14:21:52;8.27;;;6.05;;
61015;SDS011;46902;52.920;6.536;2024-03-17T14:24:18;9.95;;;6.22;;
61015;SDS011;46902;52.920;6.536;2024-03-17T14:26:43;7.28;;;6.03;;
61015;SDS011;46902;52.920;6.536;2024-03-17T14:29:09;9.45;;;6.38;;
61015;SDS011;46902;52.920;6.536;2024-03-17T14:31:35;8.20;;;6.57;;
61015;SDS011;46902;52.920;6.536;2024-03-17T14:34:05;7.22;;;6.38;;
61015;SDS011;46902;52.920;6.536;2024-03-17T14:36:31;7.82;;;6.45;;
61015;SDS011;46902;52.920;6.536;2024-03-17T14:38:58;11.38;;;6.70;;
61015;SDS011;46902;52.920;6.536;2024-03-17T14:41:24;9.35;;;7.03;;
61015;SDS011;46902;52.920;6.536;2024-03-17T14:43:52;8.88;;;6.72;;
61015;SDS011;46902;52.920;6.536;2024-03-17T14:46:18;9.43;;;6.30;;
61015;SDS011;46902;52.920;6.536;2024-03-17T14:48:43;7.70;;;6.45;;
61015;SDS011;46902;52.920;6.536;2024-03-17T14:51:09;10.95;;;6.22;;
61015;SDS011;46902;52.920;6.536;2024-03-17T14:53:36;8.43;;;6.70;;
61015;SDS011;46902;52.920;6.536;2024-03-17T14:56:07;7.05;;;5.78;;
61015;SDS011;46902;52.920;6.536;2024-03-17T14:58:34;9.07;;;6.93;;
61015;SDS011;46902;52.920;6.536;2024-03-17T15:01:00;10.00;;;6.20;;
61015;SDS011;46902;52.920;6.536;2024-03-17T15:03:28;10.32;;;6.28;;
61015;SDS011;46902;52.920;6.536;2024-03-17T15:05:54;7.63;;;6.53;;
61015;SDS011;46902;52.920;6.536;2024-03-17T15:08:20;11.75;;;6.57;;
61015;SDS011;46902;52.920;6.536;2024-03-17T15:10:46;13.50;;;7.70;;
61015;SDS011;46902;52.920;6.536;2024-03-17T15:13:11;8.88;;;7.05;;
61015;SDS011;46902;52.920;6.536;2024-03-17T15:15:39;8.20;;;6.88;;
61015;SDS011;46902;52.920;6.536;2024-03-17T15:18:05;9.02;;;6.47;;
61015;SDS011;46902;52.920;6.536;2024-03-17T15:20:32;8.27;;;6.47;;
61015;SDS011;46902;52.920;6.536;2024-03-17T15:22:58;8.77;;;6.15;;